Welcome to Hicks Airfield

***Tentative Taxiway Work Schedule***



  • Current KAFW METAR
    (5.8nm NE) VFR
    KAFW 272153Z 29016G22KT 10SM OVC060 19/08 A2963 RMK AO2 PK WND 31031/2054 SLP027 T01890078
  • Flappings Newsletter
    The official newsletter of HAPA.
    Read »
  • Property Owner's Portal
    Create an account on our new secure portal for access to secure documents.
    Log-in »
  • Air Traffic
    Hear Hicks air traffic from anywhere.
    Listen »